sensor_id;sensor_type;location;lat;lon;timestamp;pressure;altitude;pressure_sealevel;temperature;humidity
20156;BME280;10238;49.556;10.956;2022-09-29T00:02:11;96880.94;;;5.02;100.00
20156;BME280;10238;49.556;10.956;2022-09-29T00:05:00;96874.03;;;5.01;100.00
20156;BME280;10238;49.556;10.956;2022-09-29T00:07:47;96881.91;;;5.01;100.00
20156;BME280;10238;49.556;10.956;2022-09-29T00:10:39;96877.31;;;5.03;100.00
20156;BME280;10238;49.556;10.956;2022-09-29T00:13:27;96877.31;;;5.03;100.00
20156;BME280;10238;49.556;10.956;2022-09-29T00:16:14;96877.31;;;5.03;100.00
20156;BME280;10238;49.556;10.956;2022-09-29T00:19:02;96871.06;;;5.04;100.00
20156;BME280;10238;49.556;10.956;2022-09-29T00:21:52;96871.06;;;5.04;100.00
20156;BME280;10238;49.556;10.956;2022-09-29T00:24:39;96877.00;;;5.06;100.00
20156;BME280;10238;49.556;10.956;2022-09-29T00:27:27;96880.31;;;5.08;100.00
20156;BME280;10238;49.556;10.956;2022-09-29T00:30:14;96876.69;;;5.09;100.00
20156;BME280;10238;49.556;10.956;2022-09-29T00:33:02;96874.56;;;5.13;100.00
20156;BME280;10238;49.556;10.956;2022-09-29T00:35:57;96879.69;;;5.14;100.00
20156;BME280;10238;49.556;10.956;2022-09-29T00:38:47;96883.81;;;5.17;100.00
20156;BME280;10238;49.556;10.956;2022-09-29T00:41:38;96879.06;;;5.20;100.00
20156;BME280;10238;49.556;10.956;2022-09-29T00:44:58;96882.34;;;5.22;100.00
20156;BME280;10238;49.556;10.956;2022-09-29T00:47:59;96885.66;;;5.24;100.00
20156;BME280;10238;49.556;10.956;2022-09-29T00:50:52;96878.91;;;5.30;100.00
20156;BME280;10238;49.556;10.956;2022-09-29T00:53:41;96873.50;;;5.31;100.00
20156;BME280;10238;49.556;10.956;2022-09-29T00:56:32;96874.34;;;5.32;100.00
20156;BME280;10238;49.556;10.956;2022-09-29T00:59:26;96879.13;;;5.36;100.00
20156;BME280;10238;49.556;10.956;2022-09-29T01:02:19;96881.13;;;5.42;100.00
20156;BME280;10238;49.556;10.956;2022-09-29T01:05:13;96874.03;;;5.43;100.00
20156;BME280;10238;49.556;10.956;2022-09-29T01:08:14;96879.81;;;5.46;100.00
20156;BME280;10238;49.556;10.956;2022-09-29T01:11:04;96873.25;;;5.50;100.00
20156;BME280;10238;49.556;10.956;2022-09-29T01:13:54;96876.22;;;5.55;100.00
20156;BME280;10238;49.556;10.956;2022-09-29T01:16:46;96881.19;;;5.58;100.00
20156;BME280;10238;49.556;10.956;2022-09-29T01:19:50;96879.03;;;5.62;100.00
20156;BME280;10238;49.556;10.956;2022-09-29T01:23:26;96883.34;;;5.63;100.00
20156;BME280;10238;49.556;10.956;2022-09-29T01:26:51;96886.78;;;5.63;100.00
20156;BME280;10238;49.556;10.956;2022-09-29T01:30:04;96891.91;;;5.65;100.00
20156;BME280;10238;49.556;10.956;2022-09-29T01:33:25;96884.81;;;5.65;100.00
20156;BME280;10238;49.556;10.956;2022-09-29T01:36:31;96879.22;;;5.68;100.00
20156;BME280;10238;49.556;10.956;2022-09-29T01:39:30;96886.16;;;5.69;100.00
20156;BME280;10238;49.556;10.956;2022-09-29T01:42:26;96880.88;;;5.69;100.00
20156;BME280;10238;49.556;10.956;2022-09-29T01:45:24;96890.44;;;5.70;100.00
20156;BME280;10238;49.556;10.956;2022-09-29T01:48:20;96890.78;;;5.75;100.00
20156;BME280;10238;49.556;10.956;2022-09-29T01:51:16;96888.31;;;5.74;100.00
20156;BME280;10238;49.556;10.956;2022-09-29T01:54:12;96890.78;;;5.75;100.00
20156;BME280;10238;49.556;10.956;2022-09-29T01:57:08;96893.41;;;5.75;100.00
20156;BME280;10238;49.556;10.956;2022-09-29T02:00:05;96889.63;;;5.78;100.00
20156;BME280;10238;49.556;10.956;2022-09-29T02:03:00;96883.53;;;5.77;100.00
20156;BME280;10238;49.556;10.956;2022-09-29T02:05:57;96886.19;;;5.77;100.00
20156;BME280;10238;49.556;10.956;2022-09-29T02:08:50;96892.09;;;5.79;100.00
20156;BME280;10238;49.556;10.956;2022-09-29T02:11:41;96891.47;;;5.77;100.00
20156;BME280;10238;49.556;10.956;2022-09-29T02:14:32;96895.72;;;5.78;100.00
20156;BME280;10238;49.556;10.956;2022-09-29T02:17:29;96892.09;;;5.79;100.00
20156;BME280;10238;49.556;10.956;2022-09-29T02:20:19;96894.56;;;5.81;100.00
20156;BME280;10238;49.556;10.956;2022-09-29T02:23:10;96901.69;;;5.80;100.00
20156;BME280;10238;49.556;10.956;2022-09-29T02:25:59;96894.56;;;5.81;100.00
20156;BME280;10238;49.556;10.956;2022-09-29T02:28:47;96902.66;;;5.79;100.00
20156;BME280;10238;49.556;10.956;2022-09-29T02:31:37;96901.00;;;5.78;100.00
20156;BME280;10238;49.556;10.956;2022-09-29T02:34:25;96900.00;;;5.79;100.00
20156;BME280;10238;49.556;10.956;2022-09-29T02:37:36;96897.38;;;5.79;100.00
20156;BME280;10238;49.556;10.956;2022-09-29T02:40:40;96894.09;;;5.77;100.00
20156;BME280;10238;49.556;10.956;2022-09-29T02:43:47;96902.97;;;5.76;100.00
20156;BME280;10238;49.556;10.956;2022-09-29T02:46:56;96889.78;;;5.76;100.00
20156;BME280;10238;49.556;10.956;2022-09-29T02:50:13;96892.41;;;5.76;100.00
20156;BME280;10238;49.556;10.956;2022-09-29T02:53:17;96891.47;;;5.77;100.00
20156;BME280;10238;49.556;10.956;2022-09-29T02:56:23;96884.50;;;5.76;100.00
20156;BME280;10238;49.556;10.956;2022-09-29T02:59:18;96883.03;;;5.74;100.00
20156;BME280;10238;49.556;10.956;2022-09-29T03:02:07;96883.03;;;5.74;100.00
20156;BME280;10238;49.556;10.956;2022-09-29T03:04:54;96882.03;;;5.75;100.00
20156;BME280;10238;49.556;10.956;2022-09-29T03:07:42;96877.25;;;5.70;100.00
20156;BME280;10238;49.556;10.956;2022-09-29T03:10:29;96884.50;;;5.68;100.00
20156;BME280;10238;49.556;10.956;2022-09-29T03:13:18;96883.19;;;5.64;100.00
20156;BME280;10238;49.556;10.956;2022-09-29T03:16:05;96879.88;;;5.62;100.00
20156;BME280;10238;49.556;10.956;2022-09-29T03:18:53;96875.75;;;5.60;100.00
20156;BME280;10238;49.556;10.956;2022-09-29T03:21:42;96876.06;;;5.57;100.00
20156;BME280;10238;49.556;10.956;2022-09-29T03:24:30;96865.00;;;5.53;100.00
20156;BME280;10238;49.556;10.956;2022-09-29T03:27:17;96865.34;;;5.50;100.00
20156;BME280;10238;49.556;10.956;2022-09-29T03:30:10;96870.28;;;5.45;100.00
20156;BME280;10238;49.556;10.956;2022-09-29T03:32:58;96867.28;;;5.40;100.00
20156;BME280;10238;49.556;10.956;2022-09-29T03:35:46;96885.19;;;5.37;100.00
20156;BME280;10238;49.556;10.956;2022-09-29T03:38:34;96877.44;;;5.35;100.00
20156;BME280;10238;49.556;10.956;2022-09-29T03:41:22;96888.50;;;5.31;100.00
20156;BME280;10238;49.556;10.956;2022-09-29T03:44:09;96893.25;;;5.27;100.00
20156;BME280;10238;49.556;10.956;2022-09-29T03:46:58;96894.53;;;5.23;100.00
20156;BME280;10238;49.556;10.956;2022-09-29T03:49:46;96892.22;;;5.20;100.00
20156;BME280;10238;49.556;10.956;2022-09-29T03:52:33;96900.44;;;5.17;100.00
20156;BME280;10238;49.556;10.956;2022-09-29T03:55:21;96903.06;;;5.17;100.00
20156;BME280;10238;49.556;10.956;2022-09-29T03:58:09;96900.44;;;5.17;100.00
20156;BME280;10238;49.556;10.956;2022-09-29T04:00:57;96896.81;;;5.18;100.00
20156;BME280;10238;49.556;10.956;2022-09-29T04:03:47;96900.28;;;5.19;100.00
20156;BME280;10238;49.556;10.956;2022-09-29T04:06:35;96894.69;;;5.22;100.00
20156;BME280;10238;49.556;10.956;2022-09-29T04:09:22;96900.78;;;5.22;100.00
20156;BME280;10238;49.556;10.956;2022-09-29T04:12:10;96894.22;;;5.26;100.00
20156;BME280;10238;49.556;10.956;2022-09-29T04:14:57;96901.66;;;5.31;100.00
20156;BME280;10238;49.556;10.956;2022-09-29T04:17:45;96904.13;;;5.32;100.00
20156;BME280;10238;49.556;10.956;2022-09-29T04:20:33;96895.25;;;5.33;100.00
20156;BME280;10238;49.556;10.956;2022-09-29T04:23:21;96892.63;;;5.33;100.00
20156;BME280;10238;49.556;10.956;2022-09-29T04:26:09;96896.22;;;5.32;100.00
20156;BME280;10238;49.556;10.956;2022-09-29T04:28:57;96903.97;;;5.34;100.00
20156;BME280;10238;49.556;10.956;2022-09-29T04:31:44;96900.19;;;5.36;100.00
20156;BME280;10238;49.556;10.956;2022-09-29T04:34:32;96902.38;;;5.41;100.00
20156;BME280;10238;49.556;10.956;2022-09-29T04:37:21;96902.38;;;5.41;100.00
20156;BME280;10238;49.556;10.956;2022-09-29T04:40:10;96902.53;;;5.39;100.00
20156;BME280;10238;49.556;10.956;2022-09-29T04:42:58;96906.47;;;5.43;100.00
20156;BME280;10238;49.556;10.956;2022-09-29T04:45:45;96909.94;;;5.44;100.00
20156;BME280;10238;49.556;10.956;2022-09-29T04:48:34;96906.84;;;5.48;100.00
20156;BME280;10238;49.556;10.956;2022-09-29T04:51:23;96913.91;;;5.48;100.00
20156;BME280;10238;49.556;10.956;2022-09-29T04:54:12;96910.97;;;5.51;100.00
20156;BME280;10238;49.556;10.956;2022-09-29T04:57:00;96904.22;;;5.48;100.00
20156;BME280;10238;49.556;10.956;2022-09-29T04:59:48;96905.84;;;5.49;100.00
20156;BME280;10238;49.556;10.956;2022-09-29T05:02:37;96902.22;;;5.50;100.00
20156;BME280;10238;49.556;10.956;2022-09-29T05:05:25;96902.22;;;5.50;100.00
20156;BME280;10238;49.556;10.956;2022-09-29T05:08:13;96899.91;;;5.47;100.00
20156;BME280;10238;49.556;10.956;2022-09-29T05:11:04;96899.25;;;5.45;100.00
20156;BME280;10238;49.556;10.956;2022-09-29T05:13:52;96903.84;;;5.43;100.00
20156;BME280;10238;49.556;10.956;2022-09-29T05:16:40;96901.53;;;5.40;100.00
20156;BME280;10238;49.556;10.956;2022-09-29T05:19:27;96906.78;;;5.40;100.00
20156;BME280;10238;49.556;10.956;2022-09-29T05:22:16;96908.75;;;5.38;100.00
20156;BME280;10238;49.556;10.956;2022-09-29T05:25:09;96916.00;;;5.36;100.00
20156;BME280;10238;49.556;10.956;2022-09-29T05:27:59;96918.97;;;5.33;100.00
20156;BME280;10238;49.556;10.956;2022-09-29T05:30:46;96902.47;;;5.31;100.00
20156;BME280;10238;49.556;10.956;2022-09-29T05:33:38;96901.13;;;5.27;100.00
20156;BME280;10238;49.556;10.956;2022-09-29T05:36:26;96897.97;;;5.24;100.00
20156;BME280;10238;49.556;10.956;2022-09-29T05:39:13;96901.75;;;5.21;100.00
20156;BME280;10238;49.556;10.956;2022-09-29T05:42:03;96898.44;;;5.19;100.00
20156;BME280;10238;49.556;10.956;2022-09-29T05:44:53;96897.81;;;5.17;100.00
20156;BME280;10238;49.556;10.956;2022-09-29T05:47:41;96896.97;;;5.17;100.00
20156;BME280;10238;49.556;10.956;2022-09-29T05:50:29;96887.44;;;5.16;100.00
20156;BME280;10238;49.556;10.956;2022-09-29T05:53:18;96901.41;;;5.16;100.00
20156;BME280;10238;49.556;10.956;2022-09-29T05:56:08;96895.16;;;5.17;100.00
20156;BME280;10238;49.556;10.956;2022-09-29T05:58:57;96896.34;;;5.23;100.00
20156;BME280;10238;49.556;10.956;2022-09-29T06:01:48;96895.88;;;5.27;100.00
20156;BME280;10238;49.556;10.956;2022-09-29T06:04:36;96903.47;;;5.30;100.00
20156;BME280;10238;49.556;10.956;2022-09-29T06:07:26;96910.75;;;5.36;100.00
20156;BME280;10238;49.556;10.956;2022-09-29T06:10:13;96920.66;;;5.42;100.00
20156;BME280;10238;49.556;10.956;2022-09-29T06:13:01;96931.22;;;5.50;100.00
20156;BME280;10238;49.556;10.956;2022-09-29T06:15:49;96928.94;;;5.55;100.00
20156;BME280;10238;49.556;10.956;2022-09-29T06:18:38;96942.13;;;5.63;100.00
20156;BME280;10238;49.556;10.956;2022-09-29T06:21:28;96935.56;;;5.67;100.00
20156;BME280;10238;49.556;10.956;2022-09-29T06:24:16;96934.91;;;5.73;100.00
20156;BME280;10238;49.556;10.956;2022-09-29T06:27:04;96929.72;;;5.81;100.00
20156;BME280;10238;49.556;10.956;2022-09-29T06:29:51;96933.69;;;5.85;100.00
20156;BME280;10238;49.556;10.956;2022-09-29T06:32:39;96940.13;;;5.91;100.00
20156;BME280;10238;49.556;10.956;2022-09-29T06:35:28;96938.00;;;5.94;100.00
20156;BME280;10238;49.556;10.956;2022-09-29T06:38:33;96939.00;;;6.01;100.00
20156;BME280;10238;49.556;10.956;2022-09-29T06:41:22;96941.66;;;6.09;100.00
20156;BME280;10238;49.556;10.956;2022-09-29T06:44:09;96945.31;;;6.16;100.00
20156;BME280;10238;49.556;10.956;2022-09-29T06:46:58;96943.66;;;6.23;100.00
20156;BME280;10238;49.556;10.956;2022-09-29T06:49:45;96945.66;;;6.29;100.00
20156;BME280;10238;49.556;10.956;2022-09-29T06:52:54;96948.47;;;6.36;100.00
20156;BME280;10238;49.556;10.956;2022-09-29T06:55:52;96961.84;;;6.42;100.00
20156;BME280;10238;49.556;10.956;2022-09-29T06:58:41;96958.22;;;6.51;100.00
20156;BME280;10238;49.556;10.956;2022-09-29T07:01:28;96952.28;;;6.57;100.00
20156;BME280;10238;49.556;10.956;2022-09-29T07:04:16;96956.59;;;6.67;100.00
20156;BME280;10238;49.556;10.956;2022-09-29T07:07:05;96954.25;;;6.72;100.00
20156;BME280;10238;49.556;10.956;2022-09-29T07:09:55;96945.53;;;6.79;100.00
20156;BME280;10238;49.556;10.956;2022-09-29T07:12:43;96950.66;;;6.89;100.00
20156;BME280;10238;49.556;10.956;2022-09-29T07:15:31;96959.69;;;7.02;100.00
20156;BME280;10238;49.556;10.956;2022-09-29T07:18:20;96968.09;;;7.14;100.00
20156;BME280;10238;49.556;10.956;2022-09-29T07:21:10;96967.75;;;7.25;100.00
20156;BME280;10238;49.556;10.956;2022-09-29T07:23:59;96970.38;;;7.33;100.00
20156;BME280;10238;49.556;10.956;2022-09-29T07:26:49;96975.81;;;7.39;100.00
20156;BME280;10238;49.556;10.956;2022-09-29T07:29:37;96978.31;;;7.41;100.00
20156;BME280;10238;49.556;10.956;2022-09-29T07:32:25;96980.94;;;7.41;100.00
20156;BME280;10238;49.556;10.956;2022-09-29T07:35:15;96982.59;;;7.50;100.00
20156;BME280;10238;49.556;10.956;2022-09-29T07:38:03;96986.19;;;7.57;100.00
20156;BME280;10238;49.556;10.956;2022-09-29T07:40:51;96978.75;;;7.60;100.00
20156;BME280;10238;49.556;10.956;2022-09-29T07:43:40;96977.25;;;7.66;100.00
20156;BME280;10238;49.556;10.956;2022-09-29T07:46:28;96978.88;;;7.75;100.00
20156;BME280;10238;49.556;10.956;2022-09-29T07:49:15;96969.25;;;7.82;100.00
20156;BME280;10238;49.556;10.956;2022-09-29T07:52:03;96976.53;;;7.80;100.00
20156;BME280;10238;49.556;10.956;2022-09-29T07:54:50;96982.47;;;7.82;100.00
20156;BME280;10238;49.556;10.956;2022-09-29T07:57:38;96981.81;;;7.88;100.00
20156;BME280;10238;49.556;10.956;2022-09-29T08:00:28;96978.66;;;7.92;100.00
20156;BME280;10238;49.556;10.956;2022-09-29T08:03:16;96973.44;;;8.07;100.00
20156;BME280;10238;49.556;10.956;2022-09-29T08:06:08;96976.03;;;8.23;100.00
20156;BME280;10238;49.556;10.956;2022-09-29T08:08:56;96970.75;;;8.23;100.00
20156;BME280;10238;49.556;10.956;2022-09-29T08:11:50;96964.34;;;8.40;100.00
20156;BME280;10238;49.556;10.956;2022-09-29T08:14:52;96972.84;;;8.58;100.00
20156;BME280;10238;49.556;10.956;2022-09-29T08:17:41;96973.13;;;8.63;100.00
20156;BME280;10238;49.556;10.956;2022-09-29T08:20:29;96980.03;;;8.72;100.00
20156;BME280;10238;49.556;10.956;2022-09-29T08:23:17;96977.91;;;8.90;100.00
20156;BME280;10238;49.556;10.956;2022-09-29T08:26:16;96966.06;;;9.01;100.00
20156;BME280;10238;49.556;10.956;2022-09-29T08:29:29;96958.06;;;9.23;100.00
20156;BME280;10238;49.556;10.956;2022-09-29T08:32:30;96959.47;;;9.48;100.00
20156;BME280;10238;49.556;10.956;2022-09-29T08:35:20;96959.75;;;9.68;100.00
20156;BME280;10238;49.556;10.956;2022-09-29T08:38:08;96957.81;;;9.91;100.00
20156;BME280;10238;49.556;10.956;2022-09-29T08:41:01;96949.53;;;10.00;100.00
20156;BME280;10238;49.556;10.956;2022-09-29T08:43:53;96948.84;;;10.06;100.00
20156;BME280;10238;49.556;10.956;2022-09-29T08:46:48;96942.97;;;10.11;100.00
20156;BME280;10238;49.556;10.956;2022-09-29T08:49:54;96940.28;;;10.25;100.00
20156;BME280;10238;49.556;10.956;2022-09-29T08:52:52;96941.00;;;10.34;100.00
20156;BME280;10238;49.556;10.956;2022-09-29T08:55:46;96938.88;;;10.44;100.00
20156;BME280;10238;49.556;10.956;2022-09-29T08:58:39;96941.34;;;10.66;100.00
20156;BME280;10238;49.556;10.956;2022-09-29T09:01:34;96941.94;;;10.83;100.00
20156;BME280;10238;49.556;10.956;2022-09-29T09:08:21;96925.44;;;11.15;100.00
20156;BME280;10238;49.556;10.956;2022-09-29T09:11:33;96920.22;;;11.35;100.00
20156;BME280;10238;49.556;10.956;2022-09-29T09:14:43;96916.69;;;11.55;100.00
20156;BME280;10238;49.556;10.956;2022-09-29T09:18:03;96921.56;;;11.79;100.00
20156;BME280;10238;49.556;10.956;2022-09-29T09:21:06;96910.97;;;11.92;100.00
20156;BME280;10238;49.556;10.956;2022-09-29T09:24:01;96921.53;;;12.20;100.00
20156;BME280;10238;49.556;10.956;2022-09-29T09:26:54;96922.00;;;12.43;100.00
20156;BME280;10238;49.556;10.956;2022-09-29T09:29:43;96919.84;;;12.66;100.00
20156;BME280;10238;49.556;10.956;2022-09-29T09:32:40;96912.84;;;12.78;100.00
20156;BME280;10238;49.556;10.956;2022-09-29T09:35:40;96911.44;;;12.88;100.00
20156;BME280;10238;49.556;10.956;2022-09-29T09:38:51;96908.16;;;12.93;100.00
20156;BME280;10238;49.556;10.956;2022-09-29T09:41:47;96909.19;;;12.85;100.00
20156;BME280;10238;49.556;10.956;2022-09-29T09:44:46;96908.97;;;12.87;100.00
20156;BME280;10238;49.556;10.956;2022-09-29T09:47:45;96902.66;;;13.07;100.00
20156;BME280;10238;49.556;10.956;2022-09-29T09:50:40;96903.44;;;12.95;100.00
20156;BME280;10238;49.556;10.956;2022-09-29T09:53:34;96904.09;;;13.03;100.00
20156;BME280;10238;49.556;10.956;2022-09-29T09:56:44;96909.03;;;13.07;100.00
20156;BME280;10238;49.556;10.956;2022-09-29T09:59:52;96910.66;;;13.14;100.00
20156;BME280;10238;49.556;10.956;2022-09-29T10:02:47;96920.50;;;13.46;100.00
20156;BME280;10238;49.556;10.956;2022-09-29T10:05:39;96924.31;;;13.76;100.00
20156;BME280;10238;49.556;10.956;2022-09-29T10:08:30;96923.06;;;13.85;100.00
20156;BME280;10238;49.556;10.956;2022-09-29T10:11:27;96919.97;;;13.88;100.00
20156;BME280;10238;49.556;10.956;2022-09-29T10:14:23;96914.53;;;14.14;100.00
20156;BME280;10238;49.556;10.956;2022-09-29T10:17:15;96919.97;;;14.45;100.00
20156;BME280;10238;49.556;10.956;2022-09-29T10:20:06;96917.94;;;14.78;100.00
20156;BME280;10238;49.556;10.956;2022-09-29T10:23:25;96906.69;;;14.94;100.00
20156;BME280;10238;49.556;10.956;2022-09-29T10:26:16;96912.75;;;15.14;100.00
20156;BME280;10238;49.556;10.956;2022-09-29T10:29:27;96907.31;;;15.46;100.00
20156;BME280;10238;49.556;10.956;2022-09-29T10:32:24;96903.81;;;15.70;100.00
20156;BME280;10238;49.556;10.956;2022-09-29T10:35:24;96903.59;;;15.89;100.00
20156;BME280;10238;49.556;10.956;2022-09-29T10:38:19;96902.78;;;15.89;100.00
20156;BME280;10238;49.556;10.956;2022-09-29T10:41:10;96905.59;;;15.94;100.00
20156;BME280;10238;49.556;10.956;2022-09-29T10:44:18;96901.28;;;16.11;100.00
20156;BME280;10238;49.556;10.956;2022-09-29T10:47:14;96908.16;;;16.07;100.00
20156;BME280;10238;49.556;10.956;2022-09-29T10:50:13;96905.09;;;16.21;100.00
20156;BME280;10238;49.556;10.956;2022-09-29T10:53:05;96913.47;;;16.25;100.00
20156;BME280;10238;49.556;10.956;2022-09-29T10:55:59;96914.16;;;16.56;100.00
20156;BME280;10238;49.556;10.956;2022-09-29T10:58:53;96918.41;;;16.46;100.00
20156;BME280;10238;49.556;10.956;2022-09-29T11:01:54;96918.28;;;16.70;100.00
20156;BME280;10238;49.556;10.956;2022-09-29T11:04:45;96927.34;;;16.99;100.00
20156;BME280;10238;49.556;10.956;2022-09-29T11:07:43;96912.94;;;16.82;100.00
20156;BME280;10238;49.556;10.956;2022-09-29T11:10:35;96912.53;;;17.08;100.00
20156;BME280;10238;49.556;10.956;2022-09-29T11:13:45;96916.97;;;17.14;100.00
20156;BME280;10238;49.556;10.956;2022-09-29T11:16:35;96924.97;;;17.32;100.00
20156;BME280;10238;49.556;10.956;2022-09-29T11:19:24;96925.28;;;17.12;97.88
20156;BME280;10238;49.556;10.956;2022-09-29T11:25:56;96923.66;;;16.82;94.68
20156;BME280;10238;49.556;10.956;2022-09-29T11:29:03;96928.91;;;17.18;100.00
20156;BME280;10238;49.556;10.956;2022-09-29T11:32:09;96930.44;;;17.25;94.90
20156;BME280;10238;49.556;10.956;2022-09-29T11:35:12;96940.63;;;16.94;89.62
20156;BME280;10238;49.556;10.956;2022-09-29T11:38:14;96943.56;;;16.92;89.91
20156;BME280;10238;49.556;10.956;2022-09-29T11:41:22;96950.44;;;16.88;88.70
20156;BME280;10238;49.556;10.956;2022-09-29T11:47:47;96934.47;;;17.05;88.45
20156;BME280;10238;49.556;10.956;2022-09-29T11:50:44;96930.63;;;17.12;86.08
20156;BME280;10238;49.556;10.956;2022-09-29T11:53:57;96925.88;;;17.26;93.55
20156;BME280;10238;49.556;10.956;2022-09-29T11:56:56;96934.94;;;17.55;94.23
20156;BME280;10238;49.556;10.956;2022-09-29T12:00:01;96934.69;;;17.56;88.00
20156;BME280;10238;49.556;10.956;2022-09-29T12:03:15;96927.22;;;17.70;91.32
20156;BME280;10238;49.556;10.956;2022-09-29T12:06:22;96931.22;;;17.79;90.37
20156;BME280;10238;49.556;10.956;2022-09-29T12:09:31;96922.22;;;17.73;82.23
20156;BME280;10238;49.556;10.956;2022-09-29T12:12:27;96932.28;;;17.66;81.52
20156;BME280;10238;49.556;10.956;2022-09-29T12:15:30;96929.56;;;17.55;81.95
20156;BME280;10238;49.556;10.956;2022-09-29T12:18:30;96928.28;;;17.46;83.29
20156;BME280;10238;49.556;10.956;2022-09-29T12:21:28;96928.75;;;17.54;81.74
20156;BME280;10238;49.556;10.956;2022-09-29T12:24:24;96920.81;;;17.59;81.93
20156;BME280;10238;49.556;10.956;2022-09-29T12:27:17;96917.53;;;17.46;79.13
20156;BME280;10238;49.556;10.956;2022-09-29T12:30:16;96917.25;;;17.36;77.04
20156;BME280;10238;49.556;10.956;2022-09-29T12:33:09;96927.47;;;17.45;86.68
20156;BME280;10238;49.556;10.956;2022-09-29T12:36:19;96933.31;;;17.54;82.00
20156;BME280;10238;49.556;10.956;2022-09-29T12:39:41;96925.22;;;17.42;80.39
20156;BME280;10238;49.556;10.956;2022-09-29T12:42:39;96927.28;;;17.40;83.18
20156;BME280;10238;49.556;10.956;2022-09-29T12:45:36;96924.50;;;17.35;85.79
20156;BME280;10238;49.556;10.956;2022-09-29T12:48:41;96921.59;;;17.37;80.09
20156;BME280;10238;49.556;10.956;2022-09-29T12:51:36;96922.97;;;17.39;80.89
20156;BME280;10238;49.556;10.956;2022-09-29T12:54:29;96927.22;;;17.47;79.97
20156;BME280;10238;49.556;10.956;2022-09-29T12:57:23;96928.16;;;17.52;84.61
20156;BME280;10238;49.556;10.956;2022-09-29T13:00:14;96921.34;;;17.38;82.49
20156;BME280;10238;49.556;10.956;2022-09-29T13:03:30;96926.63;;;17.56;89.85
20156;BME280;10238;49.556;10.956;2022-09-29T13:06:48;96915.69;;;17.69;87.00
20156;BME280;10238;49.556;10.956;2022-09-29T13:13:28;96915.78;;;17.51;84.87
20156;BME280;10238;49.556;10.956;2022-09-29T13:16:37;96920.00;;;17.59;84.58
20156;BME280;10238;49.556;10.956;2022-09-29T13:19:49;96915.19;;;17.49;82.95
20156;BME280;10238;49.556;10.956;2022-09-29T13:23:17;96919.44;;;17.15;72.91
20156;BME280;10238;49.556;10.956;2022-09-29T13:26:30;96925.38;;;17.06;86.74
20156;BME280;10238;49.556;10.956;2022-09-29T13:29:24;96926.31;;;17.00;82.40
20156;BME280;10238;49.556;10.956;2022-09-29T13:32:13;96915.44;;;17.06;86.43
20156;BME280;10238;49.556;10.956;2022-09-29T13:35:01;96923.78;;;17.16;88.38
20156;BME280;10238;49.556;10.956;2022-09-29T13:37:53;96933.94;;;17.14;88.59
20156;BME280;10238;49.556;10.956;2022-09-29T13:41:11;96933.03;;;16.91;90.09
20156;BME280;10238;49.556;10.956;2022-09-29T13:44:18;96942.41;;;16.70;92.50
20156;BME280;10238;49.556;10.956;2022-09-29T13:47:32;96946.03;;;16.46;90.71
20156;BME280;10238;49.556;10.956;2022-09-29T13:50:41;96952.75;;;16.37;93.52
20156;BME280;10238;49.556;10.956;2022-09-29T13:53:36;96955.19;;;16.21;96.52
20156;BME280;10238;49.556;10.956;2022-09-29T13:56:26;96960.41;;;16.16;96.02
20156;BME280;10238;49.556;10.956;2022-09-29T13:59:22;96955.47;;;16.13;99.34
20156;BME280;10238;49.556;10.956;2022-09-29T14:02:31;96959.97;;;16.01;99.64
20156;BME280;10238;49.556;10.956;2022-09-29T14:06:11;96959.75;;;15.78;100.00
20156;BME280;10238;49.556;10.956;2022-09-29T14:09:20;96964.09;;;15.79;100.00
20156;BME280;10238;49.556;10.956;2022-09-29T14:12:17;96959.97;;;15.76;100.00
20156;BME280;10238;49.556;10.956;2022-09-29T14:15:14;96970.47;;;15.60;100.00
20156;BME280;10238;49.556;10.956;2022-09-29T14:18:16;96971.97;;;15.25;100.00
20156;BME280;10238;49.556;10.956;2022-09-29T14:21:11;96976.28;;;14.94;100.00
20156;BME280;10238;49.556;10.956;2022-09-29T14:23:59;96980.00;;;14.87;100.00
20156;BME280;10238;49.556;10.956;2022-09-29T14:26:50;96985.97;;;14.95;100.00
20156;BME280;10238;49.556;10.956;2022-09-29T14:29:47;96993.63;;;14.85;100.00
20156;BME280;10238;49.556;10.956;2022-09-29T14:32:41;96992.59;;;14.86;100.00
20156;BME280;10238;49.556;10.956;2022-09-29T14:35:35;96989.50;;;14.83;100.00
20156;BME280;10238;49.556;10.956;2022-09-29T14:38:27;96998.38;;;14.83;100.00
20156;BME280;10238;49.556;10.956;2022-09-29T14:41:25;96999.00;;;14.85;100.00
20156;BME280;10238;49.556;10.956;2022-09-29T14:44:19;96999.78;;;14.86;100.00
20156;BME280;10238;49.556;10.956;2022-09-29T14:47:33;97007.66;;;14.74;100.00
20156;BME280;10238;49.556;10.956;2022-09-29T14:50:52;97009.34;;;14.69;100.00
20156;BME280;10238;49.556;10.956;2022-09-29T14:54:10;97019.28;;;14.55;100.00
20156;BME280;10238;49.556;10.956;2022-09-29T14:57:17;97012.09;;;14.49;100.00
20156;BME280;10238;49.556;10.956;2022-09-29T15:00:14;97021.84;;;14.31;100.00
20156;BME280;10238;49.556;10.956;2022-09-29T15:03:07;97020.22;;;14.23;100.00
20156;BME280;10238;49.556;10.956;2022-09-29T15:06:16;97020.41;;;14.15;100.00
20156;BME280;10238;49.556;10.956;2022-09-29T15:09:17;97027.63;;;14.15;100.00
20156;BME280;10238;49.556;10.956;2022-09-29T15:12:14;97027.00;;;14.00;100.00
20156;BME280;10238;49.556;10.956;2022-09-29T15:15:03;97040.41;;;13.93;100.00
20156;BME280;10238;49.556;10.956;2022-09-29T15:18:08;97047.78;;;13.91;100.00
20156;BME280;10238;49.556;10.956;2022-09-29T15:21:11;97042.66;;;13.90;100.00
20156;BME280;10238;49.556;10.956;2022-09-29T15:24:30;97044.06;;;13.92;100.00
20156;BME280;10238;49.556;10.956;2022-09-29T15:27:22;97044.50;;;13.96;100.00
20156;BME280;10238;49.556;10.956;2022-09-29T15:30:15;97046.97;;;13.97;100.00